Time;durP1;ratioP1;P1;durP2;ratioP2;P2;SDS_P1;SDS_P2;PMS_P1;PMS_P2;Temp;Humidity;BMP_temperature;BMP_pressure;BME280_temperature;BME280_humidity;BME280_pressure;Samples;Min_cycle;Max_cycle;Signal;HPM_P1;HPM_P2
2022/11/30 00:01:31;;;;;;;68.40;61.20;;;;;;;-1.25;100.00;98653.91;104988;1314;22219;-90
2022/11/30 00:03:59;;;;;;;70.20;61.50;;;;;;;-1.27;100.00;98654.36;104879;1330;22222;-91
2022/11/30 00:06:27;;;;;;;66.50;60.10;;;;;;;-1.29;100.00;98657.82;105321;1306;22819;-90
2022/11/30 00:08:56;;;;;;;57.40;51.80;;;;;;;-1.36;100.00;98655.23;104878;1329;23076;-87
2022/11/30 00:11:26;;;;;;;57.30;51.80;;;;;;;-1.43;100.00;98655.02;105061;1300;22194;-92
2022/11/30 00:13:54;;;;;;;59.70;53.70;;;;;;;-1.44;100.00;98657.85;104651;1330;22229;-90
2022/11/30 00:16:22;;;;;;;58.30;52.80;;;;;;;-1.45;100.00;98664.30;104666;1330;22257;-90
2022/11/30 00:18:50;;;;;;;66.30;60.00;;;;;;;-1.46;100.00;98669.20;104719;1329;22206;-90
2022/11/30 00:21:19;;;;;;;63.50;57.40;;;;;;;-1.46;100.00;98667.95;105223;1317;22232;-89
2022/11/30 00:23:47;;;;;;;61.80;55.60;;;;;;;-1.48;100.00;98666.52;104871;1329;22957;-92
2022/11/30 00:26:21;;;;;;;61.00;55.20;;;;;;;-1.51;100.00;98666.36;104898;1301;22062;-84
2022/11/30 00:28:49;;;;;;;56.00;50.50;;;;;;;-1.52;100.00;98669.11;105247;1314;22259;-89
2022/11/30 00:31:18;;;;;;;59.90;54.00;;;;;;;-1.51;100.00;98676.80;105047;1323;22151;-89
2022/11/30 00:33:47;;;;;;;58.90;52.90;;;;;;;-1.53;100.00;98672.89;105039;1322;22084;-90
2022/11/30 00:36:18;;;;;;;60.50;54.60;;;;;;;-1.56;100.00;98674.96;104817;1329;22228;-87
2022/11/30 00:38:46;;;;;;;64.10;57.90;;;;;;;-1.58;100.00;98678.16;104695;1331;22952;-88
2022/11/30 00:41:16;;;;;;;62.80;56.70;;;;;;;-1.61;100.00;98675.89;104757;1330;22200;-88
2022/11/30 00:43:44;;;;;;;57.90;52.20;;;;;;;-1.64;100.00;98676.58;104798;1320;22232;-91
2022/11/30 00:46:12;;;;;;;58.30;52.60;;;;;;;-1.63;100.00;98675.16;104750;1329;22171;-88
2022/11/30 00:48:41;;;;;;;57.40;51.80;;;;;;;-1.62;100.00;98675.88;104955;1314;22198;-88
2022/11/30 00:51:10;;;;;;;64.90;58.70;;;;;;;-1.61;100.00;98673.79;105302;1319;22136;-90
2022/11/30 00:53:38;;;;;;;63.90;57.90;;;;;;;-1.60;100.00;98675.69;105333;1298;22879;-91
2022/11/30 00:56:08;;;;;;;60.50;54.20;;;;;;;-1.63;100.00;98675.11;104648;1330;22203;-89
2022/11/30 00:58:35;;;;;;;61.40;55.50;;;;;;;-1.64;100.00;98680.23;104713;1330;22233;-90
2022/11/30 01:01:04;;;;;;;57.60;52.00;;;;;;;-1.65;100.00;98679.46;105160;1311;22783;-91
2022/11/30 01:03:32;;;;;;;60.10;54.20;;;;;;;-1.67;100.00;98676.54;104901;1328;22812;-89
2022/11/30 01:06:05;;;;;;;62.40;56.40;;;;;;;-1.64;100.00;98675.45;105033;1311;22176;-87
2022/11/30 01:08:34;;;;;;;64.60;58.30;;;;;;;-1.61;100.00;98673.34;105134;1311;22196;-91
2022/11/30 01:11:22;;;;;;;65.70;59.40;;;;;;;-1.62;100.00;98673.20;104774;1323;22219;-90
2022/11/30 01:13:51;;;;;;;61.20;55.40;;;;;;;-1.64;100.00;98673.94;105030;1306;22184;-89
2022/11/30 01:16:22;;;;;;;60.60;54.30;;;;;;;-1.64;100.00;98676.34;104905;1313;23087;-90
2022/11/30 01:18:51;;;;;;;61.50;55.50;;;;;;;-1.61;100.00;98677.20;104811;1323;22191;-87
2022/11/30 01:21:22;;;;;;;62.60;56.70;;;;;;;-1.62;100.00;98676.71;104778;1329;23051;-91
2022/11/30 01:23:50;;;;;;;66.10;59.80;;;;;;;-1.61;100.00;98679.08;104568;1327;22201;-88
2022/11/30 01:26:19;;;;;;;67.10;60.80;;;;;;;-1.63;100.00;98676.05;104779;1330;22147;-89
2022/11/30 01:28:54;;;;;;;63.70;57.40;;;;;;;-1.64;100.00;98677.27;104640;1327;22169;-86
2022/11/30 01:31:23;;;;;;;63.40;57.30;;;;;;;-1.64;100.00;98678.45;105066;1308;22915;-90
2022/11/30 01:33:54;;;;;;;59.90;54.10;;;;;;;-1.60;100.00;98675.48;104816;1329;22181;-90
2022/11/30 01:36:24;;;;;;;58.80;53.20;;;;;;;-1.59;100.00;98675.54;104657;1329;22212;-90
2022/11/30 01:38:55;;;;;;;65.90;59.70;;;;;;;-1.63;100.00;98674.91;104718;1329;22219;-90
2022/11/30 01:41:29;;;;;;;69.80;63.10;;;;;;;-1.63;100.00;98676.79;104636;1329;22306;-91
2022/11/30 01:44:17;;;;;;;64.10;57.90;;;;;;;-1.66;100.00;98675.67;104588;1329;22221;-90
2022/11/30 01:46:55;;;;;;;57.50;51.90;;;;;;;-1.65;100.00;98674.66;104757;1326;22161;-90
2022/11/30 01:49:42;;;;;;;59.00;53.30;;;;;;;-1.64;100.00;98677.02;104735;1329;22089;-91
2022/11/30 01:52:39;;;;;;;62.20;56.40;;;;;;;-1.62;100.00;98677.32;104927;1322;22189;-89
2022/11/30 01:55:13;;;;;;;61.30;55.40;;;;;;;-1.60;100.00;98674.96;104853;1329;22202;-87
2022/11/30 01:57:47;;;;;;;65.70;59.60;;;;;;;-1.60;100.00;98677.67;104864;1329;22166;-89
2022/11/30 02:00:17;;;;;;;68.70;62.20;;;;;;;-1.61;100.00;98677.67;104813;1329;22199;-89
2022/11/30 02:03:24;;;;;;;63.10;57.00;;;;;;;-1.64;100.00;98681.45;104842;1329;22202;-86
2022/11/30 02:05:52;;;;;;;64.30;58.30;;;;;;;-1.66;100.00;98683.62;104264;1316;22244;-91
2022/11/30 02:08:21;;;;;;;61.90;56.20;;;;;;;-1.62;100.00;98678.25;104577;1312;22222;-90
2022/11/30 02:10:53;;;;;;;64.20;58.20;;;;;;;-1.61;100.00;98683.04;104467;1322;22206;-89
2022/11/30 02:13:39;;;;;;;67.70;61.30;;;;;;;-1.65;100.00;98682.76;104359;1336;22233;-90
2022/11/30 02:16:41;;;;;;;64.00;57.90;;;;;;;-1.69;100.00;98679.09;104360;1337;22286;-87
2022/11/30 02:19:08;;;;;;;;;;;;;;;-1.71;100.00;98679.33;104548;1326;23059;-89
2022/11/30 02:21:41;;;;;;;63.10;56.90;;;;;;;-1.70;100.00;98679.30;104343;1337;22959;-90
2022/11/30 02:24:35;;;;;;;61.80;56.20;;;;;;;-1.66;100.00;98682.23;104239;1338;22965;-87
2022/11/30 02:27:17;;;;;;;68.00;61.60;;;;;;;-1.63;100.00;98681.70;104420;1331;22141;-87
2022/11/30 02:29:55;;;;;;;67.90;61.60;;;;;;;-1.64;100.00;98678.13;104183;1338;22983;-88
2022/11/30 02:32:39;;;;;;;66.70;59.90;;;;;;;-1.67;100.00;98679.73;104196;1336;23207;-89
2022/11/30 02:35:09;;;;;;;65.10;58.60;;;;;;;-1.67;100.00;98683.04;104245;1338;22004;-89
2022/11/30 02:37:38;;;;;;;58.90;53.20;;;;;;;-1.65;100.00;98685.44;104254;1338;22816;-91
2022/11/30 02:40:12;;;;;;;64.80;58.80;;;;;;;-1.65;100.00;98688.48;104218;1338;22207;-90
2022/11/30 02:42:40;;;;;;;66.60;60.40;;;;;;;-1.66;100.00;98688.61;104661;1316;22870;-91
2022/11/30 02:45:09;;;;;;;68.10;61.80;;;;;;;-1.66;100.00;98691.21;105031;1314;22860;-89
2022/11/30 02:47:49;;;;;;;70.50;63.50;;;;;;;-1.65;100.00;98689.50;105031;1321;22743;-91
2022/11/30 02:50:27;;;;;;;65.50;59.30;;;;;;;-1.66;100.00;98693.73;104816;1329;22256;-91
2022/11/30 02:52:56;;;;;;;62.20;56.20;;;;;;;-1.69;100.00;98690.88;104687;1323;22240;-86
2022/11/30 02:55:24;;;;;;;60.90;55.00;;;;;;;-1.70;100.00;98694.61;104712;1330;22290;-88
2022/11/30 02:57:52;;;;;;;62.20;56.20;;;;;;;-1.73;100.00;98697.98;104763;1329;22224;-91
2022/11/30 03:00:20;;;;;;;65.10;59.00;;;;;;;-1.74;100.00;98696.15;105030;1314;22792;-89
2022/11/30 03:02:48;;;;;;;65.50;59.30;;;;;;;-1.72;100.00;98695.75;104705;1329;22108;-86
2022/11/30 03:05:16;;;;;;;67.20;60.80;;;;;;;-1.72;100.00;98695.27;104902;1323;22185;-87
2022/11/30 03:07:44;;;;;;;65.30;59.10;;;;;;;-1.73;100.00;98699.61;104929;1329;22222;-90
2022/11/30 03:10:12;;;;;;;62.80;56.80;;;;;;;-1.71;100.00;98697.73;104748;1329;22061;-89
2022/11/30 03:12:40;;;;;;;63.30;57.10;;;;;;;-1.67;100.00;98691.57;104825;1329;22251;-90
2022/11/30 03:15:08;;;;;;;64.30;58.10;;;;;;;-1.62;100.00;98695.09;104811;1329;22218;-88
2022/11/30 03:17:36;;;;;;;67.30;61.10;;;;;;;-1.59;100.00;98696.67;104782;1329;22266;-89
2022/11/30 03:20:05;;;;;;;68.80;62.10;;;;;;;-1.61;100.00;98695.28;104838;1329;22195;-89
2022/11/30 03:22:33;;;;;;;72.30;65.00;;;;;;;-1.63;100.00;98694.55;105021;1313;22233;-90
2022/11/30 03:25:01;;;;;;;66.60;60.20;;;;;;;-1.66;100.00;98697.10;104843;1329;22249;-89
2022/11/30 03:27:29;;;;;;;65.10;58.50;;;;;;;-1.69;100.00;98696.69;104757;1329;22217;-87
2022/11/30 03:29:56;;;;;;;60.60;54.70;;;;;;;-1.68;100.00;98698.39;104851;1329;22125;-87
2022/11/30 03:32:24;;;;;;;61.50;55.50;;;;;;;-1.71;100.00;98703.56;105137;1303;22198;-90
2022/11/30 03:34:52;;;;;;;61.00;55.30;;;;;;;-1.72;100.00;98704.33;104810;1330;22045;-87
2022/11/30 03:37:20;;;;;;;65.20;59.00;;;;;;;-1.72;100.00;98706.33;104919;1329;22297;-87
2022/11/30 03:39:48;;;;;;;61.50;55.30;;;;;;;-1.75;100.00;98711.52;105149;1322;21939;-87
2022/11/30 03:42:24;;;;;;;63.00;56.90;;;;;;;-1.78;100.00;98711.51;104893;1329;22204;-88
2022/11/30 03:44:52;;;;;;;58.60;52.90;;;;;;;-1.78;100.00;98709.92;104887;1329;22345;-90
2022/11/30 03:47:20;;;;;;;59.40;53.50;;;;;;;-1.78;100.00;98707.41;104878;1329;22353;-92
2022/11/30 03:49:48;;;;;;;62.50;56.70;;;;;;;-1.78;100.00;98707.44;104900;1329;22138;-90
2022/11/30 03:52:16;;;;;;;67.60;61.50;;;;;;;-1.80;100.00;98706.82;104803;1330;22210;-90
2022/11/30 03:54:44;;;;;;;65.60;59.40;;;;;;;-1.83;100.00;98712.80;105138;1315;22922;-91
2022/11/30 03:57:12;;;;;;;59.40;53.70;;;;;;;-1.84;100.00;98709.17;104892;1329;22253;-90
2022/11/30 03:59:40;;;;;;;58.80;53.20;;;;;;;-1.87;100.00;98707.42;104856;1315;22179;-86
2022/11/30 04:02:08;;;;;;;57.20;51.70;;;;;;;-1.90;100.00;98714.92;104907;1329;22199;-89
2022/11/30 04:04:36;;;;;;;58.20;52.70;;;;;;;-1.89;100.00;98715.57;104906;1323;22279;-90
2022/11/30 04:07:04;;;;;;;61.80;55.90;;;;;;;-1.91;100.00;98721.63;104901;1329;22174;-91
2022/11/30 04:09:32;;;;;;;60.60;54.90;;;;;;;-1.94;100.00;98719.30;105214;1314;22219;-88
2022/11/30 04:12:00;;;;;;;59.10;53.60;;;;;;;-1.94;100.00;98723.61;104893;1326;22192;-91
2022/11/30 04:14:27;;;;;;;59.70;54.10;;;;;;;-1.92;100.00;98726.33;104775;1323;22888;-90
2022/11/30 04:16:55;;;;;;;64.10;57.80;;;;;;;-1.88;100.00;98724.58;105021;1307;22861;-88
2022/11/30 04:19:23;;;;;;;58.50;53.00;;;;;;;-1.85;100.00;98727.53;105155;1300;22105;-89
2022/11/30 04:21:51;;;;;;;59.00;53.40;;;;;;;-1.85;100.00;98731.73;104854;1329;22218;-90
2022/11/30 04:24:19;;;;;;;61.50;55.30;;;;;;;-1.88;100.00;98728.17;104893;1329;22262;-92
2022/11/30 04:26:47;;;;;;;56.30;51.00;;;;;;;-1.93;100.00;98731.09;104803;1329;22236;-87
2022/11/30 04:29:15;;;;;;;56.40;50.80;;;;;;;-1.97;100.00;98727.69;104916;1329;22989;-91
2022/11/30 04:31:43;;;;;;;59.00;52.60;;;;;;;-1.97;100.00;98732.05;104823;1329;22222;-94
2022/11/30 04:34:11;;;;;;;55.90;50.70;;;;;;;-1.96;100.00;98731.77;105094;1315;22181;-89
2022/11/30 04:36:39;;;;;;;57.60;52.30;;;;;;;-1.94;100.00;98733.81;104885;1314;22242;-92
2022/11/30 04:39:07;;;;;;;62.50;56.70;;;;;;;-1.94;100.00;98731.28;104853;1322;22476;-92
2022/11/30 04:41:35;;;;;;;61.20;55.00;;;;;;;-1.95;100.00;98732.48;105125;1321;22149;-91
2022/11/30 04:44:03;;;;;;;62.80;56.70;;;;;;;-1.94;100.00;98731.73;104907;1327;22187;-93
2022/11/30 04:46:31;;;;;;;59.90;54.30;;;;;;;-1.92;100.00;98735.60;105035;1322;22277;-91
2022/11/30 04:48:59;;;;;;;62.60;56.60;;;;;;;-1.89;100.00;98737.64;104853;1321;22228;-91
2022/11/30 04:51:27;;;;;;;56.60;51.20;;;;;;;-1.85;100.00;98737.05;104881;1329;22348;-90
2022/11/30 04:53:55;;;;;;;58.80;53.30;;;;;;;-1.84;100.00;98738.15;104818;1329;22242;-92
2022/11/30 04:56:22;;;;;;;59.20;53.50;;;;;;;-1.87;100.00;98736.59;104748;1330;22107;-92
2022/11/30 04:58:50;;;;;;;57.20;51.70;;;;;;;-1.90;100.00;98735.16;104607;1330;22257;-92
2022/11/30 05:01:18;;;;;;;55.10;50.00;;;;;;;-1.93;100.00;98736.33;104616;1329;22786;-90
2022/11/30 05:03:46;;;;;;;54.20;49.20;;;;;;;-1.96;100.00;98735.42;104776;1329;22200;-92
2022/11/30 05:06:14;;;;;;;53.80;48.70;;;;;;;-1.99;100.00;98742.20;104586;1329;22281;-90
2022/11/30 05:08:42;;;;;;;57.10;51.70;;;;;;;-1.97;100.00;98744.20;104773;1329;22233;-93
2022/11/30 05:11:10;;;;;;;56.00;50.90;;;;;;;-1.97;100.00;98737.66;104711;1329;22202;-92
2022/11/30 05:13:38;;;;;;;57.00;51.70;;;;;;;-2.00;100.00;98738.13;104609;1329;22180;-90
2022/11/30 05:16:07;;;;;;;55.10;49.90;;;;;;;-2.06;100.00;98739.36;104779;1328;22126;-89
2022/11/30 05:18:35;;;;;;;55.10;50.00;;;;;;;-2.06;100.00;98739.56;104768;1329;22188;-89
2022/11/30 05:21:03;;;;;;;54.20;49.10;;;;;;;-2.03;100.00;98739.41;104719;1329;22966;-93
2022/11/30 05:23:31;;;;;;;54.30;49.40;;;;;;;-1.99;100.00;98735.17;104713;1329;22193;-90
2022/11/30 05:26:02;;;;;;;54.80;49.70;;;;;;;-1.99;100.00;98734.96;104745;1329;22209;-92
2022/11/30 05:28:30;;;;;;;60.50;54.60;;;;;;;-2.00;100.00;98736.52;104715;1329;22975;-91
2022/11/30 05:31:02;;;;;;;56.00;50.60;;;;;;;-2.00;100.00;98739.55;105089;1300;23015;-92
2022/11/30 05:33:32;;;;;;;52.60;47.40;;;;;;;-2.01;100.00;98744.76;104844;1324;22213;-91
2022/11/30 05:36:00;;;;;;;52.70;47.70;;;;;;;-2.02;100.00;98748.77;104789;1329;22190;-89
2022/11/30 05:38:33;;;;;;;57.30;51.90;;;;;;;-2.05;100.00;98751.89;104813;1327;22296;-92
2022/11/30 05:41:02;;;;;;;59.20;53.50;;;;;;;-2.09;100.00;98750.67;104830;1329;23105;-91
2022/11/30 05:43:30;;;;;;;58.10;51.70;;;;;;;-2.14;100.00;98745.48;105119;1314;22905;-91
2022/11/30 05:46:00;;;;;;;54.50;49.40;;;;;;;-2.19;100.00;98743.77;104792;1321;22293;-90
2022/11/30 05:48:28;;;;;;;54.90;49.70;;;;;;;-2.23;100.00;98742.25;104598;1329;22215;-90
2022/11/30 05:51:08;;;;;;;58.70;53.10;;;;;;;-2.20;100.00;98745.11;104753;1321;22233;-89
2022/11/30 05:53:36;;;;;;;56.40;50.90;;;;;;;-2.21;100.00;98750.66;104670;1329;22229;-91
2022/11/30 05:56:06;;;;;;;54.40;49.20;;;;;;;-2.25;100.00;98753.28;104688;1329;22162;-93
2022/11/30 05:58:34;;;;;;;54.60;49.40;;;;;;;-2.27;100.00;98753.48;104972;1314;22257;-92
2022/11/30 06:01:03;;;;;;;54.80;49.90;;;;;;;-2.23;100.00;98757.64;104701;1329;22207;-89
2022/11/30 06:03:33;;;;;;;55.90;50.60;;;;;;;-2.17;100.00;98759.30;104766;1329;22203;-91
2022/11/30 06:06:01;;;;;;;58.40;52.70;;;;;;;-2.13;100.00;98762.45;104946;1322;22247;-91
2022/11/30 06:08:30;;;;;;;52.40;47.40;;;;;;;-2.14;100.00;98764.14;104986;1321;22236;-92
2022/11/30 06:11:01;;;;;;;54.40;49.20;;;;;;;-2.16;100.00;98766.33;104770;1326;22193;-88
2022/11/30 06:13:31;;;;;;;58.00;52.80;;;;;;;-2.15;100.00;98767.39;104985;1317;22185;-91
2022/11/30 06:16:01;;;;;;;57.70;52.40;;;;;;;-2.10;100.00;98768.63;104947;1308;22164;-90
2022/11/30 06:18:29;;;;;;;62.90;56.80;;;;;;;-2.07;100.00;98772.06;104968;1314;22170;-94
2022/11/30 06:21:02;;;;;;;73.00;65.90;;;;;;;-2.07;100.00;98769.54;104795;1329;22225;-91
2022/11/30 06:23:31;;;;;;;67.50;60.90;;;;;;;-2.05;100.00;98766.35;104752;1329;22188;-89
2022/11/30 06:26:09;;;;;;;63.40;57.20;;;;;;;-2.00;100.00;98768.85;104600;1329;22241;-90
2022/11/30 06:28:38;;;;;;;60.60;54.70;;;;;;;-1.95;100.00;98768.38;104797;1329;22137;-89
2022/11/30 06:31:13;;;;;;;62.30;56.40;;;;;;;-1.93;100.00;98773.42;104974;1322;22196;-91
2022/11/30 06:33:41;;;;;;;69.70;62.90;;;;;;;-1.95;100.00;98768.78;104786;1329;22272;-88
2022/11/30 06:36:09;;;;;;;66.80;60.40;;;;;;;-1.98;100.00;98769.68;104570;1329;22293;-89
2022/11/30 06:38:37;;;;;;;66.60;60.30;;;;;;;-1.98;100.00;98773.05;104767;1329;22226;-90
2022/11/30 06:41:07;;;;;;;62.50;56.50;;;;;;;-1.93;100.00;98772.86;104788;1329;22239;-88
2022/11/30 06:43:37;;;;;;;62.30;56.40;;;;;;;-1.91;100.00;98774.94;104788;1329;22292;-89
2022/11/30 06:46:06;;;;;;;66.40;60.20;;;;;;;-1.94;100.00;98778.39;104744;1329;22196;-88
2022/11/30 06:48:34;;;;;;;65.50;59.40;;;;;;;-1.97;100.00;98779.27;104762;1324;22194;-91
2022/11/30 06:51:07;;;;;;;63.40;57.40;;;;;;;-2.00;100.00;98778.21;104655;1330;22242;-92
2022/11/30 06:53:36;;;;;;;58.00;52.30;;;;;;;-2.00;100.00;98772.40;104761;1329;22295;-89
2022/11/30 06:56:07;;;;;;;58.10;52.60;;;;;;;-1.98;100.00;98773.61;104847;1323;22217;-88
2022/11/30 06:58:38;;;;;;;61.00;55.30;;;;;;;-1.96;100.00;98773.78;104833;1329;22921;-90
2022/11/30 07:01:08;;;;;;;65.90;55.90;;;;;;;-1.91;100.00;98777.79;104806;1323;22143;-93
2022/11/30 07:03:37;;;;;;;64.70;58.60;;;;;;;-1.89;100.00;98779.38;104841;1325;22219;-91
2022/11/30 07:06:13;;;;;;;66.70;60.50;;;;;;;-1.88;100.00;98784.55;104670;1332;22131;-91
2022/11/30 07:08:42;;;;;;;67.70;61.30;;;;;;;-1.90;100.00;98783.23;104871;1329;22240;-90
2022/11/30 07:11:11;;;;;;;63.00;57.20;;;;;;;-1.90;100.00;98786.61;104756;1329;22220;-90
2022/11/30 07:13:39;;;;;;;60.00;54.50;;;;;;;-1.87;100.00;98792.92;104662;1317;22215;-90
2022/11/30 07:16:10;;;;;;;63.50;57.10;;;;;;;-1.84;100.00;98793.71;104841;1329;22249;-91
2022/11/30 07:18:38;;;;;;;65.80;59.90;;;;;;;-1.81;100.00;98792.20;104721;1323;22206;-90
2022/11/30 07:21:06;;;;;;;67.00;60.40;;;;;;;-1.82;100.00;98792.77;104553;1329;156074;-91
2022/11/30 07:26:29;;;;;;;61.30;55.50;;;;;;;-1.80;100.00;98792.09;105313;1298;22464;31
2022/11/30 07:28:57;;;;;;;56.80;51.70;;;;;;;-1.75;100.00;98792.20;105635;1300;24068;-91
2022/11/30 07:31:33;;;;;;;50.10;45.50;;;;;;;-1.82;100.00;98788.18;104756;1329;22301;-91
2022/11/30 07:34:07;;;;;;;51.80;46.90;;;;;;;-1.85;100.00;98784.80;105272;1314;22859;-91
2022/11/30 07:36:35;;;;;;;53.30;48.50;;;;;;;-1.91;100.00;98789.94;105320;1317;22279;-88
2022/11/30 07:39:03;;;;;;;50.10;45.60;;;;;;;-2.00;100.00;98789.28;104945;1327;22236;-92
2022/11/30 07:41:36;;;;;;;52.40;47.50;;;;;;;-2.05;100.00;98785.16;105172;1301;22245;31
2022/11/30 07:44:05;;;;;;;56.10;51.00;;;;;;;-2.02;100.00;98790.50;105724;1296;22210;-85
2022/11/30 07:46:40;;;;;;;59.40;54.10;;;;;;;-1.99;100.00;98793.73;105915;1290;23462;31
2022/11/30 07:49:14;;;;;;;57.20;51.90;;;;;;;-1.96;100.00;98795.64;105926;1288;21970;31
2022/11/30 07:51:51;;;;;;;59.60;54.30;;;;;;;-1.95;100.00;98795.36;106797;1285;22650;31
2022/11/30 07:54:27;;;;;;;57.70;52.20;;;;;;;-1.97;100.00;98800.39;106601;1286;22268;31
2022/11/30 07:57:00;;;;;;;55.70;50.70;;;;;;;-1.92;100.00;98805.90;106703;1294;22349;31
2022/11/30 07:59:33;;;;;;;54.00;48.90;;;;;;;-1.90;100.00;98805.46;106819;1290;22363;31
2022/11/30 08:02:09;;;;;;;56.20;51.00;;;;;;;-1.92;100.00;98812.04;106448;1300;23800;31
2022/11/30 08:04:45;;;;;;;54.80;49.90;;;;;;;-1.92;100.00;98813.34;104055;1294;22262;-81
2022/11/30 08:07:21;;;;;;;54.10;49.30;;;;;;;-1.95;100.00;98813.52;106282;1299;22809;31
2022/11/30 08:09:53;;;;;;;50.80;46.20;;;;;;;-1.99;100.00;98811.23;106967;1291;22362;31
2022/11/30 08:12:30;;;;;;;49.90;45.30;;;;;;;-2.03;100.00;98809.35;106895;1289;24001;31
2022/11/30 08:15:06;;;;;;;51.00;46.30;;;;;;;-2.04;100.00;98813.96;106368;1297;22761;31
2022/11/30 08:18:04;;;;;;;53.10;48.40;;;;;;;-2.05;100.00;98812.30;107158;1283;22340;31
2022/11/30 08:20:38;;;;;;;51.90;47.30;;;;;;;-2.07;100.00;98818.38;106854;1283;22308;31
2022/11/30 08:23:16;;;;;;;51.80;47.20;;;;;;;-2.17;100.00;98804.31;106855;1278;23939;31
2022/11/30 08:25:51;;;;;;;46.70;42.20;;;;;;;-2.06;100.00;98820.52;106334;1293;23774;31
2022/11/30 08:28:28;;;;;;;;;;;;;;;-2.02;100.00;98824.06;106805;1294;22464;31
2022/11/30 08:31:05;;;;;;;50.60;45.90;;;;;;;-2.01;100.00;98825.07;106894;1295;22852;31
2022/11/30 08:33:40;;;;;;;51.90;46.50;;;;;;;-2.02;100.00;98822.66;107056;1291;22305;31
2022/11/30 08:36:18;;;;;;;60.20;53.10;;;;;;;-2.01;100.00;98821.46;101543;1290;22258;-83
2022/11/30 08:38:51;;;;;;;53.40;47.80;;;;;;;-1.99;100.00;98821.60;106698;1292;22324;31
2022/11/30 08:41:27;;;;;;;50.40;45.80;;;;;;;-1.95;100.00;98820.20;106777;1286;22316;31
2022/11/30 08:44:05;;;;;;;50.20;45.70;;;;;;;-1.96;100.00;98807.10;106984;1284;22319;31
2022/11/30 08:46:33;;;;;;;53.30;48.60;;;;;;;-1.85;100.00;98818.02;105193;1330;22027;-81
2022/11/30 08:49:27;;;;;;;54.30;49.60;;;;;;;-1.84;100.00;98820.73;106432;1291;23520;31
2022/11/30 08:52:00;;;;;;;54.20;48.90;;;;;;;-1.86;100.00;98816.70;106320;1298;22837;-89
2022/11/30 08:54:52;;;;;;;49.60;45.10;;;;;;;-1.87;100.00;98817.95;105116;1289;22078;31
2022/11/30 08:57:41;;;;;;;51.80;47.10;;;;;;;-1.80;100.00;98821.15;106140;1282;22698;31
2022/11/30 09:00:18;;;;;;;50.90;46.30;;;;;;;-1.76;100.00;98822.85;106766;1290;22295;-90
2022/11/30 09:02:46;;;;;;;56.50;48.70;;;;;;;-1.80;100.00;98827.42;105799;1297;22371;-88
2022/11/30 09:05:14;;;;;;;55.10;50.40;;;;;;;-1.81;100.00;98822.46;105385;1292;22448;-89
2022/11/30 09:07:42;;;;;;;51.20;46.60;;;;;;;-1.77;100.00;98821.58;105841;1294;22009;-90
2022/11/30 09:10:10;;;;;;;53.50;48.30;;;;;;;-1.72;100.00;98818.72;105518;1283;22550;-87
2022/11/30 09:12:46;;;;;;;50.10;45.30;;;;;;;-1.65;100.00;98814.03;106297;1294;22277;31
2022/11/30 09:15:21;;;;;;;41.70;38.00;;;;;;;-1.57;100.00;98811.82;107037;1291;22318;31
2022/11/30 09:17:57;;;;;;;45.10;41.10;;;;;;;-1.55;100.00;98809.14;107108;1284;22792;31
2022/11/30 09:20:32;;;;;;;53.40;48.80;;;;;;;-1.59;100.00;98811.94;106574;1285;22493;31
2022/11/30 09:23:07;;;;;;;52.10;47.50;;;;;;;-1.64;100.00;98813.09;106826;1292;23527;31
2022/11/30 09:26:02;;;;;;;52.60;48.10;;;;;;;-1.66;100.00;98817.52;106492;1285;24069;31
2022/11/30 09:28:40;;;;;;;49.60;45.20;;;;;;;-1.65;100.00;98808.09;106561;1298;22299;31
2022/11/30 09:31:19;;;;;;;50.20;45.20;;;;;;;-1.57;100.00;98811.77;105279;1294;22307;-87
2022/11/30 09:33:55;;;;;;;56.50;51.30;;;;;;;-1.48;100.00;98816.59;106327;1298;22298;31
2022/11/30 09:36:31;;;;;;;56.50;51.70;;;;;;;-1.47;100.00;98819.29;106334;1298;22403;31
2022/11/30 09:39:19;;;;;;;59.30;54.10;;;;;;;-1.47;100.00;98817.68;107074;1279;22313;31
2022/11/30 09:42:43;;;;;;;55.50;49.90;;;;;;;-1.47;100.00;98814.55;106559;1294;23935;31
2022/11/30 09:45:23;;;;;;;52.40;47.70;;;;;;;-1.47;100.00;98812.31;106592;1291;23580;31
2022/11/30 09:48:12;;;;;;;49.50;45.10;;;;;;;-1.42;100.00;98811.39;106109;1292;22278;-86
2022/11/30 09:50:42;;;;;;;52.00;47.30;;;;;;;-1.38;100.00;98815.80;104983;1326;22262;-85
2022/11/30 09:53:18;;;;;;;51.20;46.80;;;;;;;-1.37;100.00;98817.25;104879;1326;22230;-89
2022/11/30 09:55:55;;;;;;;54.90;50.00;;;;;;;-1.40;100.00;98816.23;105498;1312;22190;-92
2022/11/30 09:58:35;;;;;;;56.20;50.90;;;;;;;-1.41;100.00;98810.46;105070;1326;22185;-93
2022/11/30 10:01:05;;;;;;;52.90;48.00;;;;;;;-1.37;100.00;98808.73;105502;1297;22172;-90
2022/11/30 10:03:34;;;;;;;50.00;45.50;;;;;;;-1.35;100.00;98803.88;105375;1308;22183;-91
2022/11/30 10:06:08;;;;;;;53.90;48.70;;;;;;;-1.34;100.00;98803.20;105056;1311;22186;-86
2022/11/30 10:08:56;;;;;;;54.20;49.30;;;;;;;-1.35;100.00;98796.96;105012;1320;22236;-85
2022/11/30 10:12:11;;;;;;;51.10;46.30;;;;;;;-1.33;100.00;98794.80;105179;1304;22305;-87
2022/11/30 10:14:59;;;;;;;47.80;43.60;;;;;;;-1.29;100.00;98791.86;104729;1328;22893;-88
2022/11/30 10:17:38;;;;;;;44.20;40.40;;;;;;;-1.24;100.00;98793.45;104732;1329;22761;-92
2022/11/30 10:20:24;;;;;;;48.60;44.40;;;;;;;-1.19;100.00;98796.64;105218;1322;22214;-90
2022/11/30 10:23:02;;;;;;;48.50;44.30;;;;;;;-1.18;100.00;98794.77;104966;1312;22927;-89
2022/11/30 10:25:49;;;;;;;44.90;40.60;;;;;;;-1.18;100.00;98799.70;104834;1328;22320;-86
2022/11/30 10:28:28;;;;;;;43.00;39.20;;;;;;;-1.19;100.00;98801.19;104827;1329;22852;-91
2022/11/30 10:31:16;;;;;;;43.60;39.70;;;;;;;-1.12;100.00;98794.90;104805;1330;22159;-88
2022/11/30 10:33:48;;;;;;;53.90;49.20;;;;;;;-1.05;100.00;98792.14;104814;1330;22187;-91
2022/11/30 10:36:43;;;;;;;63.30;56.50;;;;;;;-0.99;100.00;98794.64;104823;1329;22216;-92
2022/11/30 10:39:29;;;;;;;58.70;53.70;;;;;;;-0.93;100.00;98792.42;104748;1328;23040;-91
2022/11/30 10:42:08;;;;;;;53.50;48.70;;;;;;;-0.97;100.00;98789.10;105176;1305;22916;-92
2022/11/30 10:44:44;;;;;;;53.70;49.00;;;;;;;-0.96;100.00;98791.83;105206;1308;22174;-93
2022/11/30 10:47:19;;;;;;;52.00;47.30;;;;;;;-0.87;100.00;98792.97;104832;1328;22183;-91
2022/11/30 10:49:51;;;;;;;56.60;51.50;;;;;;;-0.78;100.00;98790.41;104735;1328;22986;-88
2022/11/30 10:52:24;;;;;;;57.00;51.90;;;;;;;-0.74;100.00;98793.30;105012;1301;22209;-89
2022/11/30 10:54:54;;;;;;;56.60;51.70;;;;;;;-0.69;100.00;98791.46;104825;1329;22207;-91
2022/11/30 10:57:32;;;;;;;55.90;51.10;;;;;;;-0.66;100.00;98791.05;104793;1329;22287;-89
2022/11/30 11:00:04;;;;;;;46.30;42.20;;;;;;;-0.62;100.00;98791.66;104835;1328;22164;-90
2022/11/30 11:02:44;;;;;;;44.80;41.10;;;;;;;-0.61;100.00;98792.04;104884;1329;22206;-89
2022/11/30 11:05:29;;;;;;;52.50;46.90;;;;;;;-0.60;100.00;98790.85;104899;1330;22191;-88
2022/11/30 11:07:59;;;;;;;52.60;47.70;;;;;;;-0.57;100.00;98789.23;104640;1329;22221;-89
2022/11/30 11:10:43;;;;;;;52.60;48.20;;;;;;;-0.59;100.00;98788.20;104753;1330;22244;-90
2022/11/30 11:13:34;;;;;;;50.50;46.10;;;;;;;-0.62;100.00;98785.48;104752;1329;22416;-87
2022/11/30 11:16:03;;;;;;;48.70;44.70;;;;;;;-0.61;100.00;98786.70;104888;1322;22226;-91
2022/11/30 11:18:34;;;;;;;45.80;41.70;;;;;;;-0.59;100.00;98785.98;104798;1329;22191;-87
2022/11/30 11:21:15;;;;;;;47.00;42.60;;;;;;;-0.57;100.00;98785.07;104672;1329;22282;-90
2022/11/30 11:23:44;;;;;;;45.90;42.10;;;;;;;-0.55;100.00;98786.63;104836;1328;22229;-88
2022/11/30 11:26:24;;;;;;;46.50;42.70;;;;;;;-0.56;100.00;98783.94;105217;1322;22147;-91
2022/11/30 11:28:55;;;;;;;42.60;38.60;;;;;;;-0.59;100.00;98781.08;104887;1328;22365;-89
2022/11/30 11:31:36;;;;;;;38.60;35.20;;;;;;;-0.60;100.00;98782.71;105148;1304;22278;-91
2022/11/30 11:34:21;;;;;;;35.50;32.10;;;;;;;-0.62;99.86;98786.41;104799;1329;22218;-91